sensor_id;sensor_type;location;lat;lon;timestamp;temperature;humidity
10883;DHT22;5494;51.796;10.952;2022-10-31T00:01:38;15.30;99.90
10883;DHT22;5494;51.796;10.952;2022-10-31T00:04:07;15.30;99.90
10883;DHT22;5494;51.796;10.952;2022-10-31T00:06:37;15.20;99.90
10883;DHT22;5494;51.796;10.952;2022-10-31T00:09:06;15.20;99.90
10883;DHT22;5494;51.796;10.952;2022-10-31T00:11:35;15.20;99.90
10883;DHT22;5494;51.796;10.952;2022-10-31T00:14:03;15.20;99.90
10883;DHT22;5494;51.796;10.952;2022-10-31T00:16:32;15.10;99.90
10883;DHT22;5494;51.796;10.952;2022-10-31T00:19:03;15.10;99.90
10883;DHT22;5494;51.796;10.952;2022-10-31T00:21:34;15.10;99.90
10883;DHT22;5494;51.796;10.952;2022-10-31T00:24:05;15.10;99.90
10883;DHT22;5494;51.796;10.952;2022-10-31T00:26:34;15.00;99.90
10883;DHT22;5494;51.796;10.952;2022-10-31T00:29:03;14.80;99.90
10883;DHT22;5494;51.796;10.952;2022-10-31T00:31:32;14.70;99.90
10883;DHT22;5494;51.796;10.952;2022-10-31T00:34:00;14.70;99.90
10883;DHT22;5494;51.796;10.952;2022-10-31T00:36:30;14.70;99.90
10883;DHT22;5494;51.796;10.952;2022-10-31T00:38:59;14.80;99.90
10883;DHT22;5494;51.796;10.952;2022-10-31T00:41:29;14.70;99.90
10883;DHT22;5494;51.796;10.952;2022-10-31T00:43:58;14.60;99.90
10883;DHT22;5494;51.796;10.952;2022-10-31T00:46:27;14.60;99.90
10883;DHT22;5494;51.796;10.952;2022-10-31T00:48:56;14.60;99.90
10883;DHT22;5494;51.796;10.952;2022-10-31T00:51:25;14.50;99.90
10883;DHT22;5494;51.796;10.952;2022-10-31T00:53:53;14.50;99.90
10883;DHT22;5494;51.796;10.952;2022-10-31T00:56:22;14.50;99.90
10883;DHT22;5494;51.796;10.952;2022-10-31T00:58:53;14.40;99.90
10883;DHT22;5494;51.796;10.952;2022-10-31T01:01:22;14.30;99.90
10883;DHT22;5494;51.796;10.952;2022-10-31T01:03:51;14.30;99.90
10883;DHT22;5494;51.796;10.952;2022-10-31T01:06:19;14.30;99.90
10883;DHT22;5494;51.796;10.952;2022-10-31T01:08:48;14.30;99.90
10883;DHT22;5494;51.796;10.952;2022-10-31T01:11:20;14.30;99.90
10883;DHT22;5494;51.796;10.952;2022-10-31T01:13:53;14.30;99.90
10883;DHT22;5494;51.796;10.952;2022-10-31T01:16:24;14.30;99.90
10883;DHT22;5494;51.796;10.952;2022-10-31T01:18:55;14.20;99.90
10883;DHT22;5494;51.796;10.952;2022-10-31T01:21:28;14.20;99.90
10883;DHT22;5494;51.796;10.952;2022-10-31T01:23:59;14.10;99.90
10883;DHT22;5494;51.796;10.952;2022-10-31T01:26:30;14.10;99.90
10883;DHT22;5494;51.796;10.952;2022-10-31T01:29:03;14.00;99.90
10883;DHT22;5494;51.796;10.952;2022-10-31T01:31:36;14.00;99.90
10883;DHT22;5494;51.796;10.952;2022-10-31T01:34:08;14.00;99.90
10883;DHT22;5494;51.796;10.952;2022-10-31T01:36:40;14.00;99.90
10883;DHT22;5494;51.796;10.952;2022-10-31T01:39:10;14.00;99.90
10883;DHT22;5494;51.796;10.952;2022-10-31T01:41:43;14.00;99.90
10883;DHT22;5494;51.796;10.952;2022-10-31T01:44:49;13.90;99.90
10883;DHT22;5494;51.796;10.952;2022-10-31T01:47:31;13.90;99.90
10883;DHT22;5494;51.796;10.952;2022-10-31T01:50:11;13.80;99.90
10883;DHT22;5494;51.796;10.952;2022-10-31T01:52:46;13.80;99.90
10883;DHT22;5494;51.796;10.952;2022-10-31T01:55:20;13.80;99.90
10883;DHT22;5494;51.796;10.952;2022-10-31T01:58:00;13.70;99.90
10883;DHT22;5494;51.796;10.952;2022-10-31T02:00:34;13.70;99.90
10883;DHT22;5494;51.796;10.952;2022-10-31T02:03:03;13.70;99.90
10883;DHT22;5494;51.796;10.952;2022-10-31T02:05:32;13.60;99.90
10883;DHT22;5494;51.796;10.952;2022-10-31T02:08:05;13.60;99.90
10883;DHT22;5494;51.796;10.952;2022-10-31T02:10:40;13.60;99.90
10883;DHT22;5494;51.796;10.952;2022-10-31T02:13:11;13.60;99.90
10883;DHT22;5494;51.796;10.952;2022-10-31T02:15:51;13.50;99.90
10883;DHT22;5494;51.796;10.952;2022-10-31T02:18:24;13.60;99.90
10883;DHT22;5494;51.796;10.952;2022-10-31T02:21:05;13.60;99.90
10883;DHT22;5494;51.796;10.952;2022-10-31T02:24:18;13.60;99.90
10883;DHT22;5494;51.796;10.952;2022-10-31T02:27:26;13.50;99.90
10883;DHT22;5494;51.796;10.952;2022-10-31T02:30:15;13.50;99.90
10883;DHT22;5494;51.796;10.952;2022-10-31T02:35:59;13.50;99.90
10883;DHT22;5494;51.796;10.952;2022-10-31T02:38:41;13.40;99.90
10883;DHT22;5494;51.796;10.952;2022-10-31T02:41:36;13.40;99.90
10883;DHT22;5494;51.796;10.952;2022-10-31T02:44:18;13.30;99.90
10883;DHT22;5494;51.796;10.952;2022-10-31T02:46:59;13.30;99.90
10883;DHT22;5494;51.796;10.952;2022-10-31T02:49:39;13.40;99.90
10883;DHT22;5494;51.796;10.952;2022-10-31T02:52:17;13.30;99.90
10883;DHT22;5494;51.796;10.952;2022-10-31T02:54:47;13.30;99.90
10883;DHT22;5494;51.796;10.952;2022-10-31T02:57:19;13.30;99.90
10883;DHT22;5494;51.796;10.952;2022-10-31T02:59:56;13.30;99.90
10883;DHT22;5494;51.796;10.952;2022-10-31T03:02:46;13.30;99.90
10883;DHT22;5494;51.796;10.952;2022-10-31T03:05:49;13.20;99.90
10883;DHT22;5494;51.796;10.952;2022-10-31T03:08:26;13.20;99.90
10883;DHT22;5494;51.796;10.952;2022-10-31T03:11:03;13.20;99.90
10883;DHT22;5494;51.796;10.952;2022-10-31T03:13:38;13.20;99.90
10883;DHT22;5494;51.796;10.952;2022-10-31T03:16:13;13.20;99.90
10883;DHT22;5494;51.796;10.952;2022-10-31T03:18:50;13.10;99.90
10883;DHT22;5494;51.796;10.952;2022-10-31T03:21:32;13.10;99.90
10883;DHT22;5494;51.796;10.952;2022-10-31T03:24:05;13.10;99.90
10883;DHT22;5494;51.796;10.952;2022-10-31T03:26:39;13.00;99.90
10883;DHT22;5494;51.796;10.952;2022-10-31T03:29:13;13.00;99.90
10883;DHT22;5494;51.796;10.952;2022-10-31T03:31:47;13.00;99.90
10883;DHT22;5494;51.796;10.952;2022-10-31T03:34:21;13.00;99.90
10883;DHT22;5494;51.796;10.952;2022-10-31T03:36:54;13.00;99.90
10883;DHT22;5494;51.796;10.952;2022-10-31T03:39:27;13.00;99.90
10883;DHT22;5494;51.796;10.952;2022-10-31T03:41:59;13.00;99.90
10883;DHT22;5494;51.796;10.952;2022-10-31T03:44:34;13.00;99.90
10883;DHT22;5494;51.796;10.952;2022-10-31T03:47:04;13.00;99.90
10883;DHT22;5494;51.796;10.952;2022-10-31T03:49:34;12.90;99.90
10883;DHT22;5494;51.796;10.952;2022-10-31T03:52:10;13.00;99.90
10883;DHT22;5494;51.796;10.952;2022-10-31T03:54:46;13.00;99.90
10883;DHT22;5494;51.796;10.952;2022-10-31T03:57:22;13.00;99.90
10883;DHT22;5494;51.796;10.952;2022-10-31T03:59:59;13.00;99.90
10883;DHT22;5494;51.796;10.952;2022-10-31T04:02:36;13.00;99.90
10883;DHT22;5494;51.796;10.952;2022-10-31T04:05:10;13.00;99.90
10883;DHT22;5494;51.796;10.952;2022-10-31T04:07:45;12.90;99.90
10883;DHT22;5494;51.796;10.952;2022-10-31T04:10:18;12.80;99.90
10883;DHT22;5494;51.796;10.952;2022-10-31T04:12:52;12.80;99.90
10883;DHT22;5494;51.796;10.952;2022-10-31T04:15:33;12.80;99.90
10883;DHT22;5494;51.796;10.952;2022-10-31T04:18:05;12.80;99.90
10883;DHT22;5494;51.796;10.952;2022-10-31T04:20:38;12.90;99.90
10883;DHT22;5494;51.796;10.952;2022-10-31T04:23:14;12.90;99.90
10883;DHT22;5494;51.796;10.952;2022-10-31T04:25:47;12.90;99.90
10883;DHT22;5494;51.796;10.952;2022-10-31T04:28:17;12.90;99.90
10883;DHT22;5494;51.796;10.952;2022-10-31T04:30:51;12.90;99.90
10883;DHT22;5494;51.796;10.952;2022-10-31T04:33:20;12.90;99.90
10883;DHT22;5494;51.796;10.952;2022-10-31T04:35:48;12.90;99.90
10883;DHT22;5494;51.796;10.952;2022-10-31T04:38:19;12.80;99.90
10883;DHT22;5494;51.796;10.952;2022-10-31T04:40:49;12.80;99.90
10883;DHT22;5494;51.796;10.952;2022-10-31T04:43:37;12.80;99.90
10883;DHT22;5494;51.796;10.952;2022-10-31T04:46:06;12.80;99.90
10883;DHT22;5494;51.796;10.952;2022-10-31T04:48:35;12.70;99.90
10883;DHT22;5494;51.796;10.952;2022-10-31T04:51:05;12.80;99.90
10883;DHT22;5494;51.796;10.952;2022-10-31T04:53:35;12.70;99.90
10883;DHT22;5494;51.796;10.952;2022-10-31T04:56:27;12.70;99.90
10883;DHT22;5494;51.796;10.952;2022-10-31T04:59:01;12.60;99.90
10883;DHT22;5494;51.796;10.952;2022-10-31T05:01:41;12.60;99.90
10883;DHT22;5494;51.796;10.952;2022-10-31T05:04:11;12.50;99.90
10883;DHT22;5494;51.796;10.952;2022-10-31T05:06:39;12.60;99.90
10883;DHT22;5494;51.796;10.952;2022-10-31T05:09:09;12.60;99.90
10883;DHT22;5494;51.796;10.952;2022-10-31T05:11:38;12.50;99.90
10883;DHT22;5494;51.796;10.952;2022-10-31T05:14:21;12.60;99.90
10883;DHT22;5494;51.796;10.952;2022-10-31T05:17:15;12.60;99.90
10883;DHT22;5494;51.796;10.952;2022-10-31T05:20:05;12.50;99.90
10883;DHT22;5494;51.796;10.952;2022-10-31T05:22:52;12.40;99.90
10883;DHT22;5494;51.796;10.952;2022-10-31T05:25:24;12.40;99.90
10883;DHT22;5494;51.796;10.952;2022-10-31T05:27:55;12.40;99.90
10883;DHT22;5494;51.796;10.952;2022-10-31T05:30:27;12.40;99.90
10883;DHT22;5494;51.796;10.952;2022-10-31T05:32:58;12.40;99.90
10883;DHT22;5494;51.796;10.952;2022-10-31T05:35:46;12.40;99.90
10883;DHT22;5494;51.796;10.952;2022-10-31T05:38:47;12.40;99.90
10883;DHT22;5494;51.796;10.952;2022-10-31T05:41:25;12.40;99.90
10883;DHT22;5494;51.796;10.952;2022-10-31T05:44:02;12.40;99.90
10883;DHT22;5494;51.796;10.952;2022-10-31T05:46:37;12.30;99.90
10883;DHT22;5494;51.796;10.952;2022-10-31T05:49:24;12.30;99.90
10883;DHT22;5494;51.796;10.952;2022-10-31T05:52:30;12.30;99.90
10883;DHT22;5494;51.796;10.952;2022-10-31T05:55:07;12.30;99.90
10883;DHT22;5494;51.796;10.952;2022-10-31T05:57:41;12.20;99.90
10883;DHT22;5494;51.796;10.952;2022-10-31T06:00:11;12.20;99.90
10883;DHT22;5494;51.796;10.952;2022-10-31T06:02:47;12.30;99.90
10883;DHT22;5494;51.796;10.952;2022-10-31T06:05:35;12.30;99.90
10883;DHT22;5494;51.796;10.952;2022-10-31T06:08:04;12.30;99.90
10883;DHT22;5494;51.796;10.952;2022-10-31T06:10:34;12.30;99.90
10883;DHT22;5494;51.796;10.952;2022-10-31T06:13:04;12.30;99.90
10883;DHT22;5494;51.796;10.952;2022-10-31T06:15:53;12.30;99.90
10883;DHT22;5494;51.796;10.952;2022-10-31T06:18:25;12.20;99.90
10883;DHT22;5494;51.796;10.952;2022-10-31T06:20:54;12.20;99.90
10883;DHT22;5494;51.796;10.952;2022-10-31T06:23:23;12.30;99.90
10883;DHT22;5494;51.796;10.952;2022-10-31T06:26:04;12.20;99.90
10883;DHT22;5494;51.796;10.952;2022-10-31T06:28:34;12.10;99.90
10883;DHT22;5494;51.796;10.952;2022-10-31T06:31:16;12.20;99.90
10883;DHT22;5494;51.796;10.952;2022-10-31T06:33:45;12.30;99.90
10883;DHT22;5494;51.796;10.952;2022-10-31T06:36:14;12.30;99.90
10883;DHT22;5494;51.796;10.952;2022-10-31T06:38:42;12.40;99.90
10883;DHT22;5494;51.796;10.952;2022-10-31T06:41:12;12.50;99.90
10883;DHT22;5494;51.796;10.952;2022-10-31T06:43:47;12.50;99.90
10883;DHT22;5494;51.796;10.952;2022-10-31T06:46:36;12.60;99.90
10883;DHT22;5494;51.796;10.952;2022-10-31T06:49:18;12.70;99.90
10883;DHT22;5494;51.796;10.952;2022-10-31T06:51:53;12.80;99.90
10883;DHT22;5494;51.796;10.952;2022-10-31T06:54:22;12.90;99.90
10883;DHT22;5494;51.796;10.952;2022-10-31T06:56:51;13.00;99.90
10883;DHT22;5494;51.796;10.952;2022-10-31T06:59:22;13.10;99.90
10883;DHT22;5494;51.796;10.952;2022-10-31T07:02:08;12.90;99.90
10883;DHT22;5494;51.796;10.952;2022-10-31T07:04:39;12.90;99.90
10883;DHT22;5494;51.796;10.952;2022-10-31T07:07:08;12.90;99.90
10883;DHT22;5494;51.796;10.952;2022-10-31T07:09:38;13.20;99.90
10883;DHT22;5494;51.796;10.952;2022-10-31T07:12:08;13.40;99.90
10883;DHT22;5494;51.796;10.952;2022-10-31T07:14:41;13.70;99.90
10883;DHT22;5494;51.796;10.952;2022-10-31T07:17:10;14.00;99.90
10883;DHT22;5494;51.796;10.952;2022-10-31T07:19:43;14.30;99.90
10883;DHT22;5494;51.796;10.952;2022-10-31T07:22:13;14.40;99.90
10883;DHT22;5494;51.796;10.952;2022-10-31T07:24:44;14.60;99.90
10883;DHT22;5494;51.796;10.952;2022-10-31T07:27:35;14.80;99.90
10883;DHT22;5494;51.796;10.952;2022-10-31T07:30:12;15.10;99.90
10883;DHT22;5494;51.796;10.952;2022-10-31T07:32:43;15.40;99.90
10883;DHT22;5494;51.796;10.952;2022-10-31T07:35:16;15.80;99.90
10883;DHT22;5494;51.796;10.952;2022-10-31T07:37:47;16.00;99.90
10883;DHT22;5494;51.796;10.952;2022-10-31T07:40:17;16.10;99.90
10883;DHT22;5494;51.796;10.952;2022-10-31T07:42:48;16.10;99.90
10883;DHT22;5494;51.796;10.952;2022-10-31T07:45:38;16.00;99.90
10883;DHT22;5494;51.796;10.952;2022-10-31T07:48:30;16.40;99.90
10883;DHT22;5494;51.796;10.952;2022-10-31T07:51:37;16.60;99.90
10883;DHT22;5494;51.796;10.952;2022-10-31T07:54:32;17.20;99.90
10883;DHT22;5494;51.796;10.952;2022-10-31T07:57:00;17.20;99.90
10883;DHT22;5494;51.796;10.952;2022-10-31T07:59:29;17.00;99.90
10883;DHT22;5494;51.796;10.952;2022-10-31T08:02:01;17.00;99.90
10883;DHT22;5494;51.796;10.952;2022-10-31T08:04:47;17.00;99.90
10883;DHT22;5494;51.796;10.952;2022-10-31T08:07:28;17.20;99.90
10883;DHT22;5494;51.796;10.952;2022-10-31T08:10:04;17.70;99.90
10883;DHT22;5494;51.796;10.952;2022-10-31T08:12:34;18.30;99.90
10883;DHT22;5494;51.796;10.952;2022-10-31T08:15:08;18.80;99.90
10883;DHT22;5494;51.796;10.952;2022-10-31T08:17:38;19.10;99.90
10883;DHT22;5494;51.796;10.952;2022-10-31T08:20:10;19.30;99.90
10883;DHT22;5494;51.796;10.952;2022-10-31T08:22:53;19.60;99.90
10883;DHT22;5494;51.796;10.952;2022-10-31T08:25:22;19.80;99.90
10883;DHT22;5494;51.796;10.952;2022-10-31T08:27:53;19.80;99.90
10883;DHT22;5494;51.796;10.952;2022-10-31T08:30:27;20.00;99.90
10883;DHT22;5494;51.796;10.952;2022-10-31T08:33:17;20.30;99.90
10883;DHT22;5494;51.796;10.952;2022-10-31T08:36:05;20.50;99.90
10883;DHT22;5494;51.796;10.952;2022-10-31T08:38:55;20.60;99.90
10883;DHT22;5494;51.796;10.952;2022-10-31T08:41:29;20.60;99.90
10883;DHT22;5494;51.796;10.952;2022-10-31T08:43:59;20.70;99.90
10883;DHT22;5494;51.796;10.952;2022-10-31T08:46:28;20.80;99.90
10883;DHT22;5494;51.796;10.952;2022-10-31T08:48:59;21.00;99.90
10883;DHT22;5494;51.796;10.952;2022-10-31T08:51:28;20.70;99.90
10883;DHT22;5494;51.796;10.952;2022-10-31T08:53:57;20.30;99.90
10883;DHT22;5494;51.796;10.952;2022-10-31T08:56:44;20.00;99.90
10883;DHT22;5494;51.796;10.952;2022-10-31T08:59:29;19.80;99.90
10883;DHT22;5494;51.796;10.952;2022-10-31T09:02:18;19.60;99.90
10883;DHT22;5494;51.796;10.952;2022-10-31T09:04:50;19.90;99.90
10883;DHT22;5494;51.796;10.952;2022-10-31T09:07:19;20.30;99.90
10883;DHT22;5494;51.796;10.952;2022-10-31T09:09:48;20.50;99.90
10883;DHT22;5494;51.796;10.952;2022-10-31T09:12:19;20.70;99.90
10883;DHT22;5494;51.796;10.952;2022-10-31T09:15:27;20.90;99.90
10883;DHT22;5494;51.796;10.952;2022-10-31T09:18:14;20.80;99.90
10883;DHT22;5494;51.796;10.952;2022-10-31T09:20:59;21.30;99.90
10883;DHT22;5494;51.796;10.952;2022-10-31T09:23:30;21.90;99.90
10883;DHT22;5494;51.796;10.952;2022-10-31T09:26:01;22.40;99.90
10883;DHT22;5494;51.796;10.952;2022-10-31T09:28:33;22.70;99.90
10883;DHT22;5494;51.796;10.952;2022-10-31T09:31:07;22.80;99.90
10883;DHT22;5494;51.796;10.952;2022-10-31T09:34:02;22.80;99.90
10883;DHT22;5494;51.796;10.952;2022-10-31T09:36:38;22.40;99.90
10883;DHT22;5494;51.796;10.952;2022-10-31T09:39:12;22.00;99.90
10883;DHT22;5494;51.796;10.952;2022-10-31T09:44:56;22.20;99.90
10883;DHT22;5494;51.796;10.952;2022-10-31T09:47:44;22.70;99.90
10883;DHT22;5494;51.796;10.952;2022-10-31T09:50:38;22.80;99.90
10883;DHT22;5494;51.796;10.952;2022-10-31T09:53:37;22.40;99.90
10883;DHT22;5494;51.796;10.952;2022-10-31T09:56:13;22.00;99.90
10883;DHT22;5494;51.796;10.952;2022-10-31T09:58:46;21.60;99.90
10883;DHT22;5494;51.796;10.952;2022-10-31T10:01:29;21.50;99.90
10883;DHT22;5494;51.796;10.952;2022-10-31T10:04:17;21.00;99.90
10883;DHT22;5494;51.796;10.952;2022-10-31T10:07:19;20.60;99.90
10883;DHT22;5494;51.796;10.952;2022-10-31T10:10:16;20.20;99.90
10883;DHT22;5494;51.796;10.952;2022-10-31T10:13:28;20.10;99.90
10883;DHT22;5494;51.796;10.952;2022-10-31T10:16:20;20.30;99.90
10883;DHT22;5494;51.796;10.952;2022-10-31T10:19:19;20.40;99.90
10883;DHT22;5494;51.796;10.952;2022-10-31T10:21:59;19.90;99.90
10883;DHT22;5494;51.796;10.952;2022-10-31T10:24:50;19.40;99.90
10883;DHT22;5494;51.796;10.952;2022-10-31T10:27:46;19.30;99.90
10883;DHT22;5494;51.796;10.952;2022-10-31T10:30:20;19.40;99.90
10883;DHT22;5494;51.796;10.952;2022-10-31T10:32:53;19.50;99.90
10883;DHT22;5494;51.796;10.952;2022-10-31T10:35:30;19.60;99.90
10883;DHT22;5494;51.796;10.952;2022-10-31T10:38:10;19.40;99.90
10883;DHT22;5494;51.796;10.952;2022-10-31T10:40:45;19.30;99.90
10883;DHT22;5494;51.796;10.952;2022-10-31T10:43:22;19.50;99.90
10883;DHT22;5494;51.796;10.952;2022-10-31T10:46:16;19.30;99.90
10883;DHT22;5494;51.796;10.952;2022-10-31T10:49:15;19.20;99.90
10883;DHT22;5494;51.796;10.952;2022-10-31T10:51:47;18.90;99.90
10883;DHT22;5494;51.796;10.952;2022-10-31T10:54:46;18.90;99.90
10883;DHT22;5494;51.796;10.952;2022-10-31T10:57:38;19.10;99.90
10883;DHT22;5494;51.796;10.952;2022-10-31T11:00:21;18.30;99.90
10883;DHT22;5494;51.796;10.952;2022-10-31T11:02:51;19.20;99.90
10883;DHT22;5494;51.796;10.952;2022-10-31T11:05:25;18.80;99.90
10883;DHT22;5494;51.796;10.952;2022-10-31T11:07:59;18.70;99.90
10883;DHT22;5494;51.796;10.952;2022-10-31T11:10:27;18.80;99.90
10883;DHT22;5494;51.796;10.952;2022-10-31T11:13:17;18.80;99.90
10883;DHT22;5494;51.796;10.952;2022-10-31T11:15:56;18.70;99.90
10883;DHT22;5494;51.796;10.952;2022-10-31T11:18:29;18.40;99.90
10883;DHT22;5494;51.796;10.952;2022-10-31T11:21:01;18.20;99.90
10883;DHT22;5494;51.796;10.952;2022-10-31T11:23:32;18.10;99.90
10883;DHT22;5494;51.796;10.952;2022-10-31T11:26:03;17.90;99.90
10883;DHT22;5494;51.796;10.952;2022-10-31T11:28:34;17.90;99.90
10883;DHT22;5494;51.796;10.952;2022-10-31T11:31:08;18.10;99.90
10883;DHT22;5494;51.796;10.952;2022-10-31T11:33:47;18.00;99.90
10883;DHT22;5494;51.796;10.952;2022-10-31T11:36:22;17.90;99.90
10883;DHT22;5494;51.796;10.952;2022-10-31T11:38:53;17.90;99.90
10883;DHT22;5494;51.796;10.952;2022-10-31T11:41:27;18.00;99.90
10883;DHT22;5494;51.796;10.952;2022-10-31T11:44:00;18.20;99.90
10883;DHT22;5494;51.796;10.952;2022-10-31T11:46:35;18.40;99.90
10883;DHT22;5494;51.796;10.952;2022-10-31T11:49:14;18.50;99.90
10883;DHT22;5494;51.796;10.952;2022-10-31T11:51:49;18.20;99.90
10883;DHT22;5494;51.796;10.952;2022-10-31T11:54:23;18.10;99.90
10883;DHT22;5494;51.796;10.952;2022-10-31T11:56:55;18.20;99.90
10883;DHT22;5494;51.796;10.952;2022-10-31T11:59:27;18.10;99.90
10883;DHT22;5494;51.796;10.952;2022-10-31T12:02:01;18.30;99.90
10883;DHT22;5494;51.796;10.952;2022-10-31T12:04:37;18.30;99.90
10883;DHT22;5494;51.796;10.952;2022-10-31T12:07:10;18.20;99.90
10883;DHT22;5494;51.796;10.952;2022-10-31T12:09:38;18.20;99.90
10883;DHT22;5494;51.796;10.952;2022-10-31T12:15:30;18.10;99.90
10883;DHT22;5494;51.796;10.952;2022-10-31T12:18:28;18.10;99.90
10883;DHT22;5494;51.796;10.952;2022-10-31T12:21:32;18.10;99.90
10883;DHT22;5494;51.796;10.952;2022-10-31T12:24:31;18.00;99.90
10883;DHT22;5494;51.796;10.952;2022-10-31T12:27:28;18.00;99.90
10883;DHT22;5494;51.796;10.952;2022-10-31T12:30:15;18.10;99.90
10883;DHT22;5494;51.796;10.952;2022-10-31T12:33:00;18.20;99.90
10883;DHT22;5494;51.796;10.952;2022-10-31T12:35:59;18.20;99.90
10883;DHT22;5494;51.796;10.952;2022-10-31T12:38:57;18.20;99.90
10883;DHT22;5494;51.796;10.952;2022-10-31T12:41:45;18.20;99.90
10883;DHT22;5494;51.796;10.952;2022-10-31T12:44:46;18.20;99.90
10883;DHT22;5494;51.796;10.952;2022-10-31T12:47:40;18.20;99.90
10883;DHT22;5494;51.796;10.952;2022-10-31T12:50:32;18.20;99.90
10883;DHT22;5494;51.796;10.952;2022-10-31T12:53:25;18.10;99.90
10883;DHT22;5494;51.796;10.952;2022-10-31T12:56:14;18.10;99.90
10883;DHT22;5494;51.796;10.952;2022-10-31T12:58:55;18.10;99.90
10883;DHT22;5494;51.796;10.952;2022-10-31T13:01:32;18.20;99.90
10883;DHT22;5494;51.796;10.952;2022-10-31T13:04:12;18.00;99.90
10883;DHT22;5494;51.796;10.952;2022-10-31T13:06:51;17.90;99.90
10883;DHT22;5494;51.796;10.952;2022-10-31T13:09:28;18.00;99.90
10883;DHT22;5494;51.796;10.952;2022-10-31T13:12:07;18.00;99.90
10883;DHT22;5494;51.796;10.952;2022-10-31T13:14:40;17.80;99.90
10883;DHT22;5494;51.796;10.952;2022-10-31T13:17:16;17.60;99.90
10883;DHT22;5494;51.796;10.952;2022-10-31T13:20:00;17.50;99.90
10883;DHT22;5494;51.796;10.952;2022-10-31T13:22:45;17.50;99.90
10883;DHT22;5494;51.796;10.952;2022-10-31T13:25:22;17.60;99.90
10883;DHT22;5494;51.796;10.952;2022-10-31T13:27:56;17.70;99.90
10883;DHT22;5494;51.796;10.952;2022-10-31T13:30:29;17.60;99.90
10883;DHT22;5494;51.796;10.952;2022-10-31T13:33:03;17.70;99.90
10883;DHT22;5494;51.796;10.952;2022-10-31T13:35:41;17.70;99.90
10883;DHT22;5494;51.796;10.952;2022-10-31T13:38:24;17.80;99.90
10883;DHT22;5494;51.796;10.952;2022-10-31T13:41:04;17.70;99.90
10883;DHT22;5494;51.796;10.952;2022-10-31T13:43:53;17.50;99.90
10883;DHT22;5494;51.796;10.952;2022-10-31T13:46:36;17.50;99.90
10883;DHT22;5494;51.796;10.952;2022-10-31T13:49:24;17.50;99.90
10883;DHT22;5494;51.796;10.952;2022-10-31T13:52:14;17.40;99.90
10883;DHT22;5494;51.796;10.952;2022-10-31T13:54:47;17.30;99.90
10883;DHT22;5494;51.796;10.952;2022-10-31T13:57:30;17.30;99.90
10883;DHT22;5494;51.796;10.952;2022-10-31T14:00:05;17.30;99.90
10883;DHT22;5494;51.796;10.952;2022-10-31T14:02:51;17.30;99.90
10883;DHT22;5494;51.796;10.952;2022-10-31T14:05:25;17.30;99.90
10883;DHT22;5494;51.796;10.952;2022-10-31T14:07:58;17.30;99.90
10883;DHT22;5494;51.796;10.952;2022-10-31T14:10:32;17.10;99.90
10883;DHT22;5494;51.796;10.952;2022-10-31T14:13:07;17.20;99.90
10883;DHT22;5494;51.796;10.952;2022-10-31T14:15:43;17.20;99.90
10883;DHT22;5494;51.796;10.952;2022-10-31T14:18:23;17.10;99.90
10883;DHT22;5494;51.796;10.952;2022-10-31T14:20:57;17.10;99.90
10883;DHT22;5494;51.796;10.952;2022-10-31T14:23:37;17.10;99.90
10883;DHT22;5494;51.796;10.952;2022-10-31T14:26:35;17.10;99.90
10883;DHT22;5494;51.796;10.952;2022-10-31T14:29:23;17.10;99.90
10883;DHT22;5494;51.796;10.952;2022-10-31T14:32:04;17.10;99.90
10883;DHT22;5494;51.796;10.952;2022-10-31T14:34:41;17.10;99.90
10883;DHT22;5494;51.796;10.952;2022-10-31T14:37:41;16.90;99.90
10883;DHT22;5494;51.796;10.952;2022-10-31T14:40:35;17.00;99.90
10883;DHT22;5494;51.796;10.952;2022-10-31T14:43:36;16.90;99.90
10883;DHT22;5494;51.796;10.952;2022-10-31T14:46:32;16.90;99.90
10883;DHT22;5494;51.796;10.952;2022-10-31T14:49:24;16.80;99.90
10883;DHT22;5494;51.796;10.952;2022-10-31T14:52:05;16.80;99.90
10883;DHT22;5494;51.796;10.952;2022-10-31T14:54:40;16.70;99.90
10883;DHT22;5494;51.796;10.952;2022-10-31T14:57:16;16.70;99.90
10883;DHT22;5494;51.796;10.952;2022-10-31T14:59:55;16.70;99.90
10883;DHT22;5494;51.796;10.952;2022-10-31T15:02:36;16.70;99.90
10883;DHT22;5494;51.796;10.952;2022-10-31T15:05:12;16.70;99.90
10883;DHT22;5494;51.796;10.952;2022-10-31T15:07:48;16.50;99.90
10883;DHT22;5494;51.796;10.952;2022-10-31T15:10:22;16.50;99.90
10883;DHT22;5494;51.796;10.952;2022-10-31T15:12:53;16.50;99.90
10883;DHT22;5494;51.796;10.952;2022-10-31T15:15:25;16.40;99.90
10883;DHT22;5494;51.796;10.952;2022-10-31T15:17:57;16.40;99.90
10883;DHT22;5494;51.796;10.952;2022-10-31T15:20:30;16.30;99.90
10883;DHT22;5494;51.796;10.952;2022-10-31T15:23:11;16.30;99.90
10883;DHT22;5494;51.796;10.952;2022-10-31T15:25:44;16.20;99.90
10883;DHT22;5494;51.796;10.952;2022-10-31T15:28:15;16.20;99.90
10883;DHT22;5494;51.796;10.952;2022-10-31T15:30:53;16.10;99.90
10883;DHT22;5494;51.796;10.952;2022-10-31T15:33:25;16.00;99.90
10883;DHT22;5494;51.796;10.952;2022-10-31T15:36:04;16.00;99.90
10883;DHT22;5494;51.796;10.952;2022-10-31T15:38:39;16.00;99.90
10883;DHT22;5494;51.796;10.952;2022-10-31T15:41:22;16.00;99.90
10883;DHT22;5494;51.796;10.952;2022-10-31T15:44:00;16.00;99.90
10883;DHT22;5494;51.796;10.952;2022-10-31T15:46:34;16.00;99.90
10883;DHT22;5494;51.796;10.952;2022-10-31T15:49:04;16.00;99.90
10883;DHT22;5494;51.796;10.952;2022-10-31T15:51:48;16.00;99.90
10883;DHT22;5494;51.796;10.952;2022-10-31T15:54:21;15.90;99.90
10883;DHT22;5494;51.796;10.952;2022-10-31T15:56:49;15.90;99.90
10883;DHT22;5494;51.796;10.952;2022-10-31T15:59:21;15.80;99.90
10883;DHT22;5494;51.796;10.952;2022-10-31T16:01:59;15.80;99.90
10883;DHT22;5494;51.796;10.952;2022-10-31T16:04:30;15.70;99.90
10883;DHT22;5494;51.796;10.952;2022-10-31T16:07:01;15.70;99.90
10883;DHT22;5494;51.796;10.952;2022-10-31T16:09:55;15.80;99.90
10883;DHT22;5494;51.796;10.952;2022-10-31T16:12:31;15.70;99.90
10883;DHT22;5494;51.796;10.952;2022-10-31T16:15:04;15.70;99.90
10883;DHT22;5494;51.796;10.952;2022-10-31T16:17:44;15.70;99.90
10883;DHT22;5494;51.796;10.952;2022-10-31T16:20:20;15.70;99.90
10883;DHT22;5494;51.796;10.952;2022-10-31T16:22:56;15.70;99.90
10883;DHT22;5494;51.796;10.952;2022-10-31T16:25:29;15.70;99.90
10883;DHT22;5494;51.796;10.952;2022-10-31T16:28:16;15.70;99.90
10883;DHT22;5494;51.796;10.952;2022-10-31T16:30:53;15.60;99.90
10883;DHT22;5494;51.796;10.952;2022-10-31T16:33:28;15.50;99.90
10883;DHT22;5494;51.796;10.952;2022-10-31T16:35:58;15.40;99.90
10883;DHT22;5494;51.796;10.952;2022-10-31T16:38:49;15.40;99.90
10883;DHT22;5494;51.796;10.952;2022-10-31T16:41:18;15.30;99.90
10883;DHT22;5494;51.796;10.952;2022-10-31T16:43:47;15.40;99.90
10883;DHT22;5494;51.796;10.952;2022-10-31T16:46:22;15.40;99.90